Time;durP1;ratioP1;P1;durP2;ratioP2;P2;SDS_P1;SDS_P2;PMS_P1;PMS_P2;Temp;Humidity;BMP_temperature;BMP_pressure;BME280_temperature;BME280_humidity;BME280_pressure;Samples;Min_cycle;Max_cycle;Signal;HPM_P1;HPM_P2
2021/09/17 00:01:56;;;;;;;2.58;2.38;;;;;;;18.24;72.76;100709.28;5090688;28;20039;-46
2021/09/17 00:04:22;;;;;;;2.50;2.05;;;;;;;18.24;72.87;100711.94;5107955;28;20024;-45
2021/09/17 00:06:50;;;;;;;2.38;2.17;;;;;;;18.23;72.72;100712.88;5107244;28;20080;-46
2021/09/17 00:09:15;;;;;;;2.78;2.58;;;;;;;18.23;72.88;100712.88;5107678;28;20438;-46
2021/09/17 00:11:41;;;;;;;2.38;2.25;;;;;;;18.23;72.92;100710.22;5107334;28;20489;-46
2021/09/17 00:14:07;;;;;;;2.20;2.03;;;;;;;18.22;72.85;100711.16;5107947;28;20024;-46
2021/09/17 00:16:33;;;;;;;2.45;2.25;;;;;;;18.21;72.77;100707.59;5109246;28;20035;-46
2021/09/17 00:18:59;;;;;;;1.95;1.85;;;;;;;18.21;72.70;100706.75;5102607;28;20020;-46
2021/09/17 00:21:25;;;;;;;2.80;2.30;;;;;;;18.22;72.94;100697.81;5105313;28;20043;-46
2021/09/17 00:23:51;;;;;;;2.45;2.25;;;;;;;18.21;73.03;100701.41;5106388;28;20106;-46
2021/09/17 00:26:17;;;;;;;2.15;1.95;;;;;;;18.20;72.95;100703.22;5107001;28;20057;-46
2021/09/17 00:28:42;;;;;;;2.53;2.13;;;;;;;18.20;72.85;100710.34;5088909;28;20429;-46
2021/09/17 00:31:08;;;;;;;2.22;2.08;;;;;;;18.19;72.91;100703.28;5109305;28;20046;-46
2021/09/17 00:33:34;;;;;;;1.98;1.88;;;;;;;18.19;72.87;100703.28;5107125;28;20020;-46
2021/09/17 00:36:02;;;;;;;2.30;2.20;;;;;;;18.19;72.83;100703.28;5109171;28;20023;-46
2021/09/17 00:38:28;;;;;;;2.17;2.08;;;;;;;18.18;72.84;100706.88;5103286;28;20032;-46
2021/09/17 00:40:54;;;;;;;2.28;2.17;;;;;;;18.17;72.94;100700.66;5106789;28;20027;-46
2021/09/17 00:43:20;;;;;;;2.28;2.08;;;;;;;18.19;73.01;100708.59;5104755;28;20097;-46
2021/09/17 00:45:47;;;;;;;1.90;1.80;;;;;;;18.17;72.83;100703.34;5107993;28;20062;-46
2021/09/17 00:48:13;;;;;;;2.70;2.50;;;;;;;18.19;72.86;100703.28;5106227;28;20392;-46
2021/09/17 00:50:39;;;;;;;2.35;2.15;;;;;;;18.17;72.78;100706.00;5103490;28;20454;-46
2021/09/17 00:53:05;;;;;;;2.30;2.10;;;;;;;18.16;72.82;100709.59;5107638;28;20046;-46
2021/09/17 00:55:32;;;;;;;7.03;2.28;;;;;;;18.15;72.85;100707.88;5103740;28;20465;-46
2021/09/17 00:57:58;;;;;;;2.42;2.22;;;;;;;18.16;72.99;100714.06;5089046;28;20389;-46
2021/09/17 01:00:24;;;;;;;2.30;2.10;;;;;;;18.16;72.75;100711.41;5089856;28;20547;-46
2021/09/17 01:02:49;;;;;;;2.22;2.13;;;;;;;18.15;72.86;100709.66;5088516;28;20034;-46
2021/09/17 01:05:16;;;;;;;2.13;2.03;;;;;;;18.14;72.89;100702.59;5105890;28;20017;-46
2021/09/17 01:07:43;;;;;;;2.38;2.17;;;;;;;18.13;72.90;100704.38;5106822;28;20031;-46
2021/09/17 01:10:09;;;;;;;2.40;2.20;;;;;;;18.15;73.02;100712.34;5106542;28;20475;-46
2021/09/17 01:12:36;;;;;;;2.33;2.17;;;;;;;18.14;72.84;100705.28;5089400;28;20481;-46
2021/09/17 01:15:03;;;;;;;2.42;2.22;;;;;;;18.12;72.97;100708.00;5086232;28;20035;-46
2021/09/17 01:17:37;;;;;;;2.20;2.00;;;;;;;18.13;72.77;100704.38;5102337;28;20024;-46
2021/09/17 01:20:06;;;;;;;1.98;1.88;;;;;;;18.12;72.88;100707.13;5105522;28;20468;-46
2021/09/17 01:22:33;;;;;;;2.20;2.00;;;;;;;18.12;72.90;100707.13;5106139;28;20435;-46
2021/09/17 01:24:58;;;;;;;2.17;1.98;;;;;;;18.11;72.73;100702.72;5106986;28;20094;-46
2021/09/17 01:27:24;;;;;;;2.20;2.00;;;;;;;18.12;72.73;100701.78;5102548;28;20102;-46
2021/09/17 01:29:52;;;;;;;2.20;2.05;;;;;;;18.11;72.83;100697.38;5105878;28;20031;-46
2021/09/17 01:32:18;;;;;;;2.20;2.00;;;;;;;18.11;72.74;100697.38;5102885;28;20023;-46
2021/09/17 01:34:44;;;;;;;2.10;2.00;;;;;;;18.10;72.67;100696.50;5105627;28;20035;-46
2021/09/17 01:37:10;;;;;;;2.60;2.35;;;;;;;18.09;72.78;100702.78;5106240;28;20020;-46
2021/09/17 01:39:36;;;;;;;2.03;1.92;;;;;;;18.08;72.67;100695.69;5090444;28;20024;-46
2021/09/17 01:42:02;;;;;;;2.45;1.88;;;;;;;18.09;72.70;100686.75;5105527;28;20118;-46
2021/09/17 01:44:28;;;;;;;1.90;1.80;;;;;;;18.07;72.70;100694.78;5107228;28;20076;-46
2021/09/17 01:46:54;;;;;;;2.00;1.90;;;;;;;18.05;72.87;100683.34;5107557;28;20023;-46
2021/09/17 01:49:20;;;;;;;1.80;1.70;;;;;;;18.06;72.74;100682.41;5103673;28;20020;-46
2021/09/17 01:51:45;;;;;;;2.20;2.00;;;;;;;18.06;72.77;100684.19;5106233;28;20019;-46
2021/09/17 01:54:11;;;;;;;2.38;1.90;;;;;;;18.05;72.89;100680.66;5106488;28;20035;-46
2021/09/17 01:56:37;;;;;;;2.15;1.95;;;;;;;18.04;72.66;100678.91;5106405;28;20023;-46
2021/09/17 01:59:04;;;;;;;2.35;2.10;;;;;;;18.05;72.73;100675.31;5105065;28;20024;-46
2021/09/17 02:01:30;;;;;;;1.80;1.70;;;;;;;18.05;72.67;100679.78;5101895;28;20076;-46
2021/09/17 02:03:56;;;;;;;2.03;1.90;;;;;;;18.04;72.63;100678.91;5104789;28;20038;-46
2021/09/17 02:06:25;;;;;;;2.70;2.20;;;;;;;18.03;72.67;100679.84;5104235;28;20076;-46
2021/09/17 02:08:51;;;;;;;1.98;1.88;;;;;;;18.05;72.81;100682.44;5107392;28;20480;-46
2021/09/17 02:11:18;;;;;;;1.90;1.80;;;;;;;18.03;72.81;100682.50;5103586;28;20039;-46
2021/09/17 02:13:44;;;;;;;1.80;1.70;;;;;;;18.03;72.53;100682.50;5106657;28;20370;-46
2021/09/17 02:16:11;;;;;;;2.08;1.95;;;;;;;18.03;72.77;100682.50;5105488;28;20051;-46
2021/09/17 02:18:37;;;;;;;1.67;1.58;;;;;;;18.02;72.65;100686.13;5103599;28;20031;-46
2021/09/17 02:21:03;;;;;;;2.20;2.00;;;;;;;18.01;72.64;100684.34;5105282;28;20035;-46
2021/09/17 02:23:29;;;;;;;2.38;2.15;;;;;;;18.02;72.79;100686.13;5104379;28;20023;-46
2021/09/17 02:25:55;;;;;;;1.80;1.70;;;;;;;18.01;72.71;100687.03;5090092;28;20027;-46
2021/09/17 02:28:21;;;;;;;2.13;1.92;;;;;;;18.01;72.86;100689.69;5085758;28;20473;-46
2021/09/17 02:30:48;;;;;;;2.22;2.08;;;;;;;18.01;72.70;100681.69;5102866;28;20047;-46
2021/09/17 02:33:14;;;;;;;1.80;1.70;;;;;;;18.00;72.73;100687.97;5103764;28;20680;-46
2021/09/17 02:35:39;;;;;;;2.05;1.92;;;;;;;18.00;72.65;100682.63;5104786;28;20123;-46
2021/09/17 02:38:05;;;;;;;2.38;2.17;;;;;;;17.99;72.70;100686.25;5104038;28;20473;-46
2021/09/17 02:40:31;;;;;;;2.55;2.40;;;;;;;17.99;72.67;100682.69;5102859;28;20451;-46
2021/09/17 02:42:58;;;;;;;2.50;2.30;;;;;;;17.99;72.84;100680.03;5105056;28;20037;-46
2021/09/17 02:45:24;;;;;;;2.47;2.28;;;;;;;17.98;72.88;100681.84;5107114;28;20027;-46
2021/09/17 02:47:50;;;;;;;2.30;2.15;;;;;;;17.99;72.83;100678.22;5102579;28;20084;-46
2021/09/17 02:50:16;;;;;;;2.20;2.00;;;;;;;17.98;73.04;100668.50;5103672;28;20099;-46
2021/09/17 02:52:42;;;;;;;2.42;2.22;;;;;;;17.98;72.70;100670.28;5087901;28;20034;-46
2021/09/17 02:55:09;;;;;;;2.83;2.63;;;;;;;17.97;72.72;100674.75;5104481;28;20024;-46
2021/09/17 02:57:37;;;;;;;3.10;2.80;;;;;;;17.98;72.88;100675.63;5103619;28;20019;-46
2021/09/17 03:00:08;;;;;;;3.65;3.03;;;;;;;17.96;72.65;100670.34;5103794;28;20465;-46
2021/09/17 03:02:33;;;;;;;3.25;2.67;;;;;;;17.96;72.73;100675.69;5103389;28;20032;-46
2021/09/17 03:04:59;;;;;;;3.50;3.20;;;;;;;17.95;72.86;100665.94;5102838;28;20068;-46
2021/09/17 03:07:26;;;;;;;3.20;2.90;;;;;;;17.95;72.94;100668.63;5102249;28;20020;-46
2021/09/17 03:09:52;;;;;;;2.80;2.60;;;;;;;17.95;72.75;100671.28;5104818;28;20023;-46
2021/09/17 03:12:18;;;;;;;2.78;2.58;;;;;;;17.94;72.83;100666.88;5086647;28;20507;-46
2021/09/17 03:14:44;;;;;;;3.22;2.92;;;;;;;17.94;72.93;100672.22;5088497;28;20055;-46
2021/09/17 03:17:10;;;;;;;2.90;2.67;;;;;;;17.94;72.93;100666.88;5103684;28;20114;-46
2021/09/17 03:19:36;;;;;;;2.85;2.40;;;;;;;17.95;72.70;100668.63;5103171;28;20488;-46
2021/09/17 03:22:03;;;;;;;3.33;3.03;;;;;;;17.92;72.97;100661.59;5103531;28;20028;-46
2021/09/17 03:24:29;;;;;;;3.30;3.00;;;;;;;17.92;72.81;100658.06;5103582;28;20073;-46
2021/09/17 03:26:55;;;;;;;3.03;2.83;;;;;;;17.91;72.78;100661.66;5108745;28;20031;-46
2021/09/17 03:29:21;;;;;;;3.03;2.72;;;;;;;17.92;72.69;100666.06;5105625;28;20019;-46
2021/09/17 03:31:47;;;;;;;2.55;2.35;;;;;;;17.89;72.85;100664.41;5110152;28;20026;-46
2021/09/17 03:34:13;;;;;;;3.00;2.70;;;;;;;17.88;72.90;100657.34;5109525;28;20103;-46
2021/09/17 03:36:42;;;;;;;3.92;2.38;;;;;;;17.89;72.70;100658.19;5091551;28;20035;-46
2021/09/17 03:39:11;;;;;;;2.60;2.35;;;;;;;17.89;72.76;100666.19;5108281;28;20046;-46
2021/09/17 03:41:43;;;;;;;4.13;3.60;;;;;;;17.88;72.74;100665.34;5108750;28;20023;-46
2021/09/17 03:44:09;;;;;;;2.92;2.50;;;;;;;17.89;72.91;100660.84;5106562;28;20477;-46
2021/09/17 03:46:35;;;;;;;2.33;2.13;;;;;;;17.88;72.81;100661.78;5108459;28;20030;-46
2021/09/17 03:49:01;;;;;;;2.42;2.22;;;;;;;17.88;72.92;100661.78;5104710;28;20503;-46
2021/09/17 03:51:26;;;;;;;2.90;2.28;;;;;;;17.88;72.79;100661.78;5105135;28;20474;-46
2021/09/17 03:53:52;;;;;;;2.80;2.47;;;;;;;17.87;72.79;100657.38;5108298;27;20022;-46
2021/09/17 03:56:18;;;;;;;2.63;2.42;;;;;;;17.86;73.00;100660.97;5109596;28;20537;-46
2021/09/17 03:58:44;;;;;;;3.17;2.80;;;;;;;17.85;72.68;100657.44;5106938;28;20142;-46
2021/09/17 04:01:10;;;;;;;2.45;2.25;;;;;;;17.85;72.92;100659.22;5104948;28;20034;-46
2021/09/17 04:03:36;;;;;;;3.00;2.65;;;;;;;17.83;72.71;100654.84;5103536;28;20027;-46
2021/09/17 04:06:02;;;;;;;2.45;2.25;;;;;;;17.83;72.68;100654.84;5089616;28;20050;-46
2021/09/17 04:08:28;;;;;;;2.88;2.67;;;;;;;17.82;72.50;100663.78;5107171;28;20024;-46
2021/09/17 04:10:54;;;;;;;2.75;2.55;;;;;;;17.81;72.73;100659.34;5104919;28;20112;-46
2021/09/17 04:13:20;;;;;;;2.40;2.20;;;;;;;17.82;72.69;100663.78;5102414;28;20034;-46
2021/09/17 04:15:46;;;;;;;2.40;2.20;;;;;;;17.81;72.85;100659.34;5107195;28;20069;-46
2021/09/17 04:18:12;;;;;;;2.55;2.35;;;;;;;17.81;72.67;100656.69;5107300;28;20033;-46
2021/09/17 04:20:38;;;;;;;3.17;2.50;;;;;;;17.81;72.70;100655.84;5106844;28;20477;-46
2021/09/17 04:23:04;;;;;;;2.42;2.22;;;;;;;17.80;72.61;100657.63;5107256;28;20107;-46
2021/09/17 04:25:30;;;;;;;3.00;2.78;;;;;;;17.80;72.63;100654.97;5105626;28;20031;-46
2021/09/17 04:27:57;;;;;;;2.38;2.17;;;;;;;17.79;72.75;100653.22;5105386;28;20416;-46
2021/09/17 04:30:23;;;;;;;2.45;2.25;;;;;;;17.80;72.50;100656.75;5108753;28;20047;-46
2021/09/17 04:32:49;;;;;;;2.50;2.30;;;;;;;17.78;72.66;100655.94;5110308;28;20019;-46
2021/09/17 04:35:15;;;;;;;2.67;2.47;;;;;;;17.76;72.72;100658.69;5104993;28;20028;-46
2021/09/17 04:37:42;;;;;;;2.55;2.35;;;;;;;17.77;72.51;100657.75;5106279;28;20073;-46
2021/09/17 04:40:10;;;;;;;2.55;2.35;;;;;;;17.76;72.62;100661.34;5105335;28;20023;-46
2021/09/17 04:42:36;;;;;;;3.03;2.72;;;;;;;17.76;72.68;100658.69;5108310;28;20054;-46
2021/09/17 04:45:03;;;;;;;2.45;2.25;;;;;;;17.76;72.61;100664.00;5107322;28;20115;-46
2021/09/17 04:47:29;;;;;;;2.55;2.35;;;;;;;17.76;72.56;100671.13;5106843;28;20027;-46
2021/09/17 04:49:55;;;;;;;2.67;2.47;;;;;;;17.77;72.61;100673.75;5106105;28;20084;-46
2021/09/17 04:52:21;;;;;;;2.30;2.08;;;;;;;17.75;72.55;100666.72;5106080;28;20035;-46
2021/09/17 04:54:48;;;;;;;3.03;2.45;;;;;;;17.76;72.50;100671.13;5106733;28;20024;-46
2021/09/17 04:57:14;;;;;;;2.67;2.47;;;;;;;17.74;72.51;100676.53;5105017;28;20030;-46
2021/09/17 04:59:40;;;;;;;2.55;2.35;;;;;;;17.73;72.48;100674.78;5104025;28;20050;-46
2021/09/17 05:02:06;;;;;;;2.83;2.28;;;;;;;17.74;72.68;100675.69;5090731;28;20055;-46
2021/09/17 05:04:32;;;;;;;2.38;2.17;;;;;;;17.73;72.58;100672.13;5107620;28;20031;-46
2021/09/17 05:06:58;;;;;;;2.38;2.17;;;;;;;17.73;72.58;100672.13;5107950;28;20039;-46
2021/09/17 05:09:25;;;;;;;3.45;2.28;;;;;;;17.72;72.64;100672.19;5107568;28;20030;-46
2021/09/17 05:11:51;;;;;;;3.40;2.50;;;;;;;17.71;72.58;100666.00;5086874;28;20027;-46
2021/09/17 05:14:17;;;;;;;2.60;2.40;;;;;;;17.72;72.74;100669.53;5108334;28;20047;-46
2021/09/17 05:16:45;;;;;;;2.58;2.05;;;;;;;17.71;72.62;100660.66;5109140;28;20023;-46
2021/09/17 05:19:12;;;;;;;2.10;1.88;;;;;;;17.71;72.62;100660.66;5102483;28;20063;-46
2021/09/17 05:21:38;;;;;;;2.40;2.28;;;;;;;17.70;72.59;100658.91;5104923;28;20085;-46
2021/09/17 05:24:04;;;;;;;3.13;2.33;;;;;;;17.70;72.61;100659.78;5090708;28;20024;-46
2021/09/17 05:26:30;;;;;;;2.17;1.98;;;;;;;17.69;72.49;100666.06;5106364;28;20043;-47
2021/09/17 05:28:56;;;;;;;2.20;2.00;;;;;;;17.70;72.60;100673.13;5104971;28;20032;-46
2021/09/17 05:31:22;;;;;;;2.33;1.90;;;;;;;17.70;72.60;100669.56;5105372;28;20055;-46
2021/09/17 05:33:48;;;;;;;2.13;1.95;;;;;;;17.70;72.49;100674.91;5104230;28;20440;-46
2021/09/17 05:36:14;;;;;;;2.40;1.95;;;;;;;17.71;72.49;100671.34;5106669;28;20473;-46
2021/09/17 05:38:40;;;;;;;2.33;2.13;;;;;;;17.72;72.38;100677.53;5106825;28;20043;-46
2021/09/17 05:41:06;;;;;;;2.38;1.88;;;;;;;17.72;72.51;100680.19;5106786;28;20054;-46
2021/09/17 05:43:32;;;;;;;2.30;2.10;;;;;;;17.72;72.40;100682.84;5106154;28;20042;-46
2021/09/17 05:45:58;;;;;;;2.53;2.33;;;;;;;17.72;72.38;100686.41;5085568;28;20020;-46
2021/09/17 05:48:24;;;;;;;1.98;1.88;;;;;;;17.69;72.43;100683.84;5105808;28;20027;-46
2021/09/17 05:50:51;;;;;;;1.80;1.70;;;;;;;17.69;72.35;100675.84;5105735;28;20023;-46
2021/09/17 05:53:17;;;;;;;2.15;1.98;;;;;;;17.69;72.45;100683.84;5106750;28;20077;-46
2021/09/17 05:55:43;;;;;;;2.08;1.98;;;;;;;17.69;72.30;100679.41;5108320;28;20012;-46
2021/09/17 05:58:09;;;;;;;2.42;1.73;;;;;;;17.69;72.32;100679.41;5102563;28;20393;-46
2021/09/17 06:00:36;;;;;;;2.78;1.90;;;;;;;17.69;72.26;100681.19;5107052;28;20483;-46
2021/09/17 06:03:02;;;;;;;2.63;2.10;;;;;;;17.70;72.29;100688.25;5106970;28;20385;-46
2021/09/17 06:05:28;;;;;;;2.97;2.33;;;;;;;17.70;72.23;100674.91;5104607;28;20029;-46
2021/09/17 06:07:54;;;;;;;2.33;2.13;;;;;;;17.68;72.26;100684.78;5106085;28;20028;-46
2021/09/17 06:10:20;;;;;;;2.10;1.90;;;;;;;17.66;72.54;100684.84;5105615;28;20974;-46
2021/09/17 06:12:46;;;;;;;1.95;1.80;;;;;;;17.66;72.40;100690.19;5106121;28;20019;-46
2021/09/17 06:15:13;;;;;;;2.78;1.90;;;;;;;17.65;72.49;100688.44;5084261;28;20445;-46
2021/09/17 06:17:40;;;;;;;2.17;2.03;;;;;;;17.65;72.46;100693.78;5104843;28;20034;-46
2021/09/17 06:20:07;;;;;;;2.65;2.30;;;;;;;17.66;72.42;100691.97;5105822;28;20088;-46
2021/09/17 06:22:33;;;;;;;2.80;1.75;;;;;;;17.65;72.44;100695.56;5103686;28;20385;-46
2021/09/17 06:24:59;;;;;;;2.30;2.10;;;;;;;17.66;72.25;100697.28;5105248;28;20015;-46
2021/09/17 06:27:25;;;;;;;1.88;1.73;;;;;;;17.65;72.41;100695.56;5086459;28;20059;-46
2021/09/17 06:29:51;;;;;;;2.22;2.03;;;;;;;17.64;72.27;100696.50;5104134;28;20066;-47
2021/09/17 06:32:17;;;;;;;2.30;1.80;;;;;;;17.63;72.20;100692.06;5107243;28;20027;-46
2021/09/17 06:34:43;;;;;;;2.05;1.95;;;;;;;17.63;72.18;100695.63;5102982;28;20102;-46
2021/09/17 06:37:09;;;;;;;2.17;1.98;;;;;;;17.65;72.53;100708.91;5104273;28;20162;-46
2021/09/17 06:39:35;;;;;;;2.47;1.85;;;;;;;17.64;72.34;100704.50;5102293;28;20024;-47
2021/09/17 06:42:02;;;;;;;2.20;2.00;;;;;;;17.63;72.41;100705.41;5104215;28;20020;-47
2021/09/17 06:44:29;;;;;;;2.38;2.17;;;;;;;17.63;72.44;100702.75;5101479;28;20044;-46
2021/09/17 06:46:55;;;;;;;2.22;1.75;;;;;;;17.63;72.36;100700.97;5105725;28;20469;-46
2021/09/17 06:49:21;;;;;;;2.05;1.95;;;;;;;17.62;72.22;100695.69;5102566;28;20608;-46
2021/09/17 06:51:47;;;;;;;2.00;1.90;;;;;;;17.62;72.27;100698.34;5106140;28;20043;-46
2021/09/17 06:54:13;;;;;;;2.28;2.10;;;;;;;17.63;72.32;100705.41;5104657;28;20019;-46
2021/09/17 06:56:39;;;;;;;2.20;1.98;;;;;;;17.62;72.24;100698.34;5103040;28;20054;-46
2021/09/17 06:59:05;;;;;;;2.25;2.05;;;;;;;17.61;72.26;100693.94;5103725;28;20020;-46
2021/09/17 07:01:31;;;;;;;1.88;1.77;;;;;;;17.60;72.27;100694.88;5107413;28;20028;-46
2021/09/17 07:03:57;;;;;;;2.50;2.30;;;;;;;17.62;72.30;100695.69;5107290;28;20019;-47
2021/09/17 07:06:22;;;;;;;3.08;2.00;;;;;;;17.62;72.07;100687.69;5109820;28;20031;-46
2021/09/17 07:08:48;;;;;;;3.40;2.10;;;;;;;17.61;72.16;100691.28;5108348;28;20102;-47
2021/09/17 07:11:14;;;;;;;17.08;4.40;;;;;;;17.25;74.66;100690.81;5108896;28;20034;-47
2021/09/17 07:13:40;;;;;;;4.95;3.47;;;;;;;17.13;74.77;100694.78;5108920;28;20020;-47
2021/09/17 07:16:06;;;;;;;3.85;3.45;;;;;;;17.00;75.33;100689.00;5106176;28;20072;-46
2021/09/17 07:18:32;;;;;;;6.25;3.85;;;;;;;16.99;75.38;100689.94;5089555;28;20047;-46
2021/09/17 07:20:58;;;;;;;4.75;3.65;;;;;;;16.94;75.54;100694.53;5107741;28;20499;-46
2021/09/17 07:23:24;;;;;;;5.22;3.38;;;;;;;16.90;75.48;100691.13;5107505;28;20024;-47
2021/09/17 07:25:50;;;;;;;3.75;3.28;;;;;;;16.77;76.56;100690.69;5106215;28;20023;-48
2021/09/17 07:28:16;;;;;;;4.72;3.85;;;;;;;16.74;76.68;100692.59;5107134;28;20023;-47
2021/09/17 07:30:42;;;;;;;3.90;3.33;;;;;;;16.67;76.48;100689.25;5106769;28;20048;-47
2021/09/17 07:33:07;;;;;;;3.72;3.00;;;;;;;16.66;76.61;100693.72;5106503;28;20077;-47
2021/09/17 07:35:33;;;;;;;4.07;2.80;;;;;;;16.65;76.53;100689.34;5109715;28;20031;-47
2021/09/17 07:37:59;;;;;;;5.78;3.38;;;;;;;16.71;76.42;100690.03;5072135;28;20028;-47
2021/09/17 07:40:29;;;;;;;5.35;3.55;;;;;;;16.71;76.70;100696.25;5074747;28;20019;-47
2021/09/17 07:42:55;;;;;;;3.47;3.17;;;;;;;16.72;76.85;100692.66;5109401;28;20076;-47
2021/09/17 07:45:24;;;;;;;3.67;3.38;;;;;;;16.70;77.03;100696.28;5105332;28;20019;-47
2021/09/17 07:47:51;;;;;;;3.17;2.90;;;;;;;16.69;77.04;100695.41;5088054;28;20104;-47
2021/09/17 07:50:17;;;;;;;4.32;2.78;;;;;;;16.61;77.66;100694.81;5107839;28;20068;-47
2021/09/17 07:52:44;;;;;;;8.43;3.50;;;;;;;16.59;77.15;100702.84;5090297;28;20031;-47
2021/09/17 07:55:11;;;;;;;4.97;2.95;;;;;;;16.64;76.95;100700.88;5109380;28;20461;-47
2021/09/17 07:57:38;;;;;;;3.67;3.00;;;;;;;16.58;76.89;100695.78;5106685;28;20020;-48
2021/09/17 08:00:06;;;;;;;3.15;2.38;;;;;;;16.53;76.58;100703.91;5108043;28;20027;-47
2021/09/17 08:02:32;;;;;;;4.75;2.80;;;;;;;16.55;76.59;100702.06;5109782;28;20028;-47
2021/09/17 08:04:57;;;;;;;4.43;3.08;;;;;;;16.49;76.98;100702.28;5110894;28;20007;-45
2021/09/17 08:07:23;;;;;;;3.60;3.10;;;;;;;16.53;77.10;100697.72;5105240;28;20028;-45
2021/09/17 08:12:18;;;;;;;4.72;2.90;;;;;;;16.56;77.80;100697.63;5069531;28;20056;-45
2021/09/17 08:14:44;;;;;;;4.60;3.10;;;;;;;16.69;76.41;100692.75;5072670;28;20024;-46
2021/09/17 08:17:10;;;;;;;4.95;2.58;;;;;;;16.65;76.52;100696.44;5070076;28;20025;-45
2021/09/17 08:19:36;;;;;;;5.15;2.60;;;;;;;16.60;76.82;100699.25;5067751;28;20028;-45
2021/09/17 08:22:02;;;;;;;6.13;2.90;;;;;;;16.62;76.84;100704.53;5073438;28;20035;-45
2021/09/17 08:24:28;;;;;;;5.03;3.10;;;;;;;16.61;76.81;100700.97;5070776;28;20486;-45
2021/09/17 08:26:57;;;;;;;8.52;3.38;;;;;;;16.79;76.49;100696.84;5072682;28;20114;-46
2021/09/17 08:29:23;;;;;;;6.97;3.38;;;;;;;16.84;76.42;100709.13;5070249;28;20830;-45
2021/09/17 08:31:49;;;;;;;3.08;2.78;;;;;;;16.86;76.25;100701.94;5071159;28;20044;-44
2021/09/17 08:34:15;;;;;;;10.07;3.30;;;;;;;16.86;76.48;100704.59;5071023;28;20067;-44
2021/09/17 08:36:41;;;;;;;7.22;3.42;;;;;;;16.92;76.14;100712.38;5069753;28;20269;-44
2021/09/17 08:39:08;;;;;;;8.02;2.97;;;;;;;16.96;75.79;100703.34;5074821;28;20028;-44
2021/09/17 08:41:34;;;;;;;4.30;2.58;;;;;;;17.00;75.93;100712.09;5071716;28;20039;-44
2021/09/17 08:44:01;;;;;;;4.40;2.95;;;;;;;17.01;75.75;100705.88;5071520;28;20085;-44
2021/09/17 08:46:27;;;;;;;3.28;2.97;;;;;;;17.01;75.77;100709.38;5069653;28;20028;-45
2021/09/17 08:48:53;;;;;;;6.47;2.67;;;;;;;17.03;75.46;100706.66;5074682;28;20021;-45
2021/09/17 08:51:20;;;;;;;5.07;3.00;;;;;;;17.02;75.46;100716.47;5071165;28;20032;-44
2021/09/17 08:53:47;;;;;;;5.43;2.80;;;;;;;17.03;75.40;100712.00;5074269;28;20456;-45
2021/09/17 08:56:15;;;;;;;3.20;2.90;;;;;;;17.02;75.17;100711.16;5070311;28;20016;-47
2021/09/17 08:58:43;;;;;;;10.73;3.20;;;;;;;17.03;75.62;100715.53;5069343;28;20087;-47
2021/09/17 09:01:30;;;;;;;7.93;3.05;;;;;;;17.05;74.76;100718.16;5070710;28;20025;-47
2021/09/17 09:04:00;;;;;;;4.28;2.50;;;;;;;16.83;73.06;100716.22;5054758;28;20536;-47
2021/09/17 09:06:27;;;;;;;3.70;2.33;;;;;;;16.91;73.10;100723.97;5072884;28;20107;-46
2021/09/17 09:08:55;;;;;;;3.00;2.05;;;;;;;16.97;73.49;100723.75;5072662;28;20020;-46
2021/09/17 09:11:25;;;;;;;4.05;2.10;;;;;;;17.00;73.75;100718.31;5069836;28;20060;-46
2021/09/17 09:13:57;;;;;;;3.53;2.08;;;;;;;17.02;73.91;100713.81;5070304;28;20717;-46
2021/09/17 09:16:23;;;;;;;2.13;1.92;;;;;;;17.02;73.91;100708.47;5072130;28;20385;-46
2021/09/17 09:18:49;;;;;;;1.70;1.60;;;;;;;17.02;73.97;100711.16;5053518;28;20024;-46
2021/09/17 09:21:26;;;;;;;1.90;1.80;;;;;;;17.04;74.15;100713.75;5054625;28;20020;-46
2021/09/17 09:24:16;;;;;;;5.38;3.10;;;;;;;17.03;74.30;100709.31;5073448;28;20054;-47
2021/09/17 09:26:45;;;;;;;3.45;1.85;;;;;;;17.03;74.62;100707.53;5064983;28;20119;-46
2021/09/17 09:29:28;;;;;;;2.13;1.92;;;;;;;17.05;74.07;100704.81;5070751;28;20066;-45
2021/09/17 09:31:54;;;;;;;3.72;2.10;;;;;;;17.05;73.62;100705.72;5071235;28;20035;-44
2021/09/17 09:34:23;;;;;;;2.33;1.75;;;;;;;17.08;74.05;100711.88;5065366;28;20028;-45
2021/09/17 09:37:02;;;;;;;2.70;2.45;;;;;;;17.05;73.97;100697.72;5067788;28;20027;-44
2021/09/17 09:39:27;;;;;;;2.33;1.60;;;;;;;17.06;74.34;100709.25;5070385;28;20048;-44
2021/09/17 09:41:53;;;;;;;2.42;1.48;;;;;;;17.08;73.80;100703.88;5068167;28;20611;-44
2021/09/17 09:44:19;;;;;;;2.90;1.98;;;;;;;17.07;74.07;100697.66;5070574;28;20055;-45
2021/09/17 09:46:46;;;;;;;3.00;1.65;;;;;;;17.07;73.40;100707.47;5070864;28;20029;-44
2021/09/17 09:49:24;;;;;;;1.85;1.52;;;;;;;17.07;73.81;100695.00;5067452;28;20082;-44
2021/09/17 09:51:58;;;;;;;2.10;1.95;;;;;;;17.09;73.88;100694.94;5069542;28;20020;-44
2021/09/17 09:54:26;;;;;;;1.77;1.67;;;;;;;17.08;73.84;100693.22;5071270;28;20480;-43
2021/09/17 09:56:54;;;;;;;2.17;1.67;;;;;;;17.08;73.82;100695.88;5069497;28;20052;-46
2021/09/17 09:59:26;;;;;;;2.15;1.60;;;;;;;17.09;73.63;100689.63;5067504;28;20075;-44
2021/09/17 10:01:53;;;;;;;3.00;1.58;;;;;;;17.10;73.96;100691.38;5068503;28;20335;-46
2021/09/17 10:04:24;;;;;;;1.77;1.67;;;;;;;17.10;73.69;100689.56;5069448;28;20078;-45
2021/09/17 10:07:01;;;;;;;1.55;1.45;;;;;;;17.11;73.41;100693.13;5068098;28;20508;-44
2021/09/17 10:09:27;;;;;;;2.05;1.75;;;;;;;17.11;73.48;100677.97;5072395;28;20024;-47
2021/09/17 10:11:52;;;;;;;2.42;1.95;;;;;;;17.11;73.76;100682.44;5070669;28;20402;-46
2021/09/17 10:14:18;;;;;;;2.80;1.70;;;;;;;17.11;73.39;100677.13;5069951;28;20032;-46
2021/09/17 10:16:45;;;;;;;2.00;1.80;;;;;;;17.10;73.48;100675.41;5054207;28;20534;-46
2021/09/17 10:19:11;;;;;;;2.55;2.03;;;;;;;17.12;73.35;100673.53;5071045;28;20158;-46
2021/09/17 10:21:58;;;;;;;1.83;1.73;;;;;;;17.12;73.30;100684.19;5051690;28;20092;-47
2021/09/17 10:24:26;;;;;;;1.60;1.50;;;;;;;17.10;73.48;100676.25;5069909;28;20081;-45
2021/09/17 10:27:09;;;;;;;2.72;2.13;;;;;;;17.11;73.34;100677.13;5070686;28;20024;-46
2021/09/17 10:29:39;;;;;;;1.65;1.55;;;;;;;17.12;73.16;100673.53;5067104;28;20024;-44
2021/09/17 10:32:08;;;;;;;2.05;1.92;;;;;;;17.11;73.13;100682.44;5069859;28;20054;-44
2021/09/17 10:34:40;;;;;;;1.80;1.70;;;;;;;17.09;73.41;100674.50;5069680;28;20044;-44
2021/09/17 10:37:07;;;;;;;2.13;1.55;;;;;;;17.10;73.01;100678.06;5069418;28;20020;-44
2021/09/17 10:39:33;;;;;;;2.08;1.98;;;;;;;17.09;73.04;100671.84;5069718;28;20085;-44
2021/09/17 10:42:14;;;;;;;1.70;1.60;;;;;;;17.10;72.81;100675.41;5070424;28;20025;-45
2021/09/17 10:45:02;;;;;;;1.80;1.70;;;;;;;17.11;73.34;100677.13;5069756;28;20012;-46
2021/09/17 10:47:40;;;;;;;2.40;2.08;;;;;;;17.11;73.22;100672.66;5067059;28;20441;-47
2021/09/17 10:50:13;;;;;;;2.95;1.45;;;;;;;17.11;73.11;100664.66;5068300;28;20028;-46
2021/09/17 10:52:45;;;;;;;3.53;2.22;;;;;;;17.11;73.11;100671.81;5069850;28;20052;-46
2021/09/17 10:55:42;;;;;;;3.58;2.38;;;;;;;17.11;73.16;100661.13;5069478;28;20032;-47
2021/09/17 10:58:28;;;;;;;2.13;2.03;;;;;;;17.11;72.99;100666.47;5067815;28;20024;-44
2021/09/17 11:00:56;;;;;;;2.30;2.20;;;;;;;17.11;72.98;100669.13;5069772;28;20402;-47
2021/09/17 11:03:46;;;;;;;2.72;2.53;;;;;;;17.11;72.95;100669.13;5069289;28;20079;-46
2021/09/17 11:06:26;;;;;;;3.67;2.70;;;;;;;17.13;72.92;100661.94;5070837;28;20104;-45
2021/09/17 11:09:00;;;;;;;2.47;2.20;;;;;;;17.12;72.82;100657.53;5069693;28;20040;-44
2021/09/17 11:11:30;;;;;;;3.05;2.45;;;;;;;17.13;72.90;100653.94;5068981;28;20036;-43
2021/09/17 11:13:58;;;;;;;3.03;2.72;;;;;;;17.14;72.93;100661.03;5051272;28;20031;-44
2021/09/17 11:16:26;;;;;;;2.95;2.50;;;;;;;17.14;73.00;100647.72;5069311;28;20097;-44
2021/09/17 11:18:52;;;;;;;3.05;2.75;;;;;;;17.14;72.92;100656.56;5069468;28;20017;-44
2021/09/17 11:21:19;;;;;;;3.35;2.65;;;;;;;17.14;72.91;100658.38;5069817;28;20020;-44
2021/09/17 11:23:49;;;;;;;2.95;2.75;;;;;;;17.14;73.01;100661.03;5068225;28;20490;-43
2021/09/17 11:26:23;;;;;;;3.40;3.10;;;;;;;17.14;73.00;100653.88;5068709;28;20016;-44
2021/09/17 11:29:10;;;;;;;2.58;2.38;;;;;;;17.14;73.02;100656.56;5069141;28;20017;-44